Time;durP1;ratioP1;P1;durP2;ratioP2;P2;SDS_P1;SDS_P2;PMS_P1;PMS_P2;Temp;Humidity;BMP_temperature;BMP_pressure;BME280_temperature;BME280_humidity;BME280_pressure;Samples;Min_cycle;Max_cycle;Signal;HPM_P1;HPM_P2
2021/09/07 00:00:22;;;;;;;0.75;0.75;;;14.50;99.90;;;;;;5113647;28;20233;-75
2021/09/07 00:02:48;;;;;;;0.22;0.22;;;14.50;99.90;;;;;;5106383;28;20191;-75
2021/09/07 00:05:14;;;;;;;2.78;0.65;;;14.50;99.90;;;;;;5109835;28;20209;-75
2021/09/07 00:07:41;;;;;;;1.60;1.50;;;14.50;99.90;;;;;;5109065;28;20255;-75
2021/09/07 00:10:09;;;;;;;0.15;0.15;;;14.50;99.90;;;;;;5075620;28;20263;-75
2021/09/07 00:12:36;;;;;;;1.30;1.20;;;14.40;99.90;;;;;;5089378;28;20188;-75
2021/09/07 00:15:04;;;;;;;0.80;0.80;;;14.30;99.90;;;;;;5090505;28;20160;-75
2021/09/07 00:17:30;;;;;;;0.73;0.73;;;14.30;99.90;;;;;;5089664;28;20247;-74
2021/09/07 00:19:56;;;;;;;2.67;0.93;;;14.20;99.90;;;;;;5112889;28;20203;-75
2021/09/07 00:22:22;;;;;;;0.80;0.80;;;14.20;99.90;;;;;;5109176;28;20211;-75
2021/09/07 00:24:48;;;;;;;3.80;1.45;;;14.10;99.90;;;;;;5083365;28;20243;-75
2021/09/07 00:27:14;;;;;;;2.20;1.77;;;14.10;99.90;;;;;;5088231;28;20211;-74
2021/09/07 00:29:40;;;;;;;0.40;0.40;;;14.00;99.90;;;;;;5088644;28;20279;-74
2021/09/07 00:32:06;;;;;;;1.13;0.95;;;14.00;99.90;;;;;;5070636;28;20160;-76
2021/09/07 00:34:34;;;;;;;0.17;0.17;;;14.10;99.90;;;;;;5088643;28;20537;-76
2021/09/07 00:37:01;;;;;;;1.27;1.13;;;14.10;99.90;;;;;;5088535;28;20159;-76
2021/09/07 00:39:27;;;;;;;0.73;0.73;;;14.10;99.90;;;;;;5069916;28;20207;-76
2021/09/07 00:41:53;;;;;;;0.77;0.77;;;14.10;99.90;;;;;;5088523;28;20164;-74
2021/09/07 00:44:23;;;;;;;1.38;1.20;;;14.00;99.90;;;;;;5088435;28;20164;-76
2021/09/07 00:47:07;;;;;;;0.20;0.20;;;14.00;99.90;;;;;;5070223;28;20228;-74
2021/09/07 00:49:36;;;;;;;0.90;0.77;;;14.00;99.90;;;;;;5087739;28;20200;-77
2021/09/07 00:52:03;;;;;;;0.70;0.70;;;14.00;99.90;;;;;;5070326;28;20160;-76
2021/09/07 00:54:31;;;;;;;1.75;1.65;;;14.00;99.90;;;;;;5087377;28;20242;-75
2021/09/07 00:57:01;;;;;;;0.65;0.40;;;14.00;99.90;;;;;;5088246;28;20233;-75
2021/09/07 00:59:28;;;;;;;0.43;0.43;;;14.10;99.90;;;;;;5121026;28;20194;-76
2021/09/07 01:01:54;;;;;;;1.00;0.57;;;14.10;99.90;;;;;;5129018;28;20190;-75
2021/09/07 01:04:20;;;;;;;1.50;1.48;;;14.10;99.90;;;;;;5110285;28;20187;-76
2021/09/07 01:06:46;;;;;;;0.68;0.68;;;14.10;99.90;;;;;;5110488;28;20242;-76
2021/09/07 01:09:13;;;;;;;1.77;1.15;;;14.10;99.90;;;;;;5109862;28;20198;-76
2021/09/07 01:11:40;;;;;;;1.05;1.02;;;14.10;99.90;;;;;;5128832;28;20159;-74
2021/09/07 01:14:05;;;;;;;0.68;0.68;;;14.10;99.90;;;;;;5128874;28;20154;-74
2021/09/07 01:16:31;;;;;;;2.58;1.55;;;14.00;99.90;;;;;;5128954;28;20512;-74
2021/09/07 01:18:59;;;;;;;1.08;1.08;;;14.00;99.90;;;;;;5128804;28;20662;-75
2021/09/07 01:21:26;;;;;;;7.45;1.70;;;13.90;99.90;;;;;;5128502;28;20230;-74
2021/09/07 01:23:53;;;;;;;1.17;0.63;;;13.90;99.90;;;;;;5128992;28;20188;-74
2021/09/07 01:26:22;;;;;;;1.38;0.80;;;13.90;99.90;;;;;;5108517;28;20559;-74
2021/09/07 01:28:48;;;;;;;1.27;0.82;;;13.90;99.90;;;;;;5090233;28;20218;-74
2021/09/07 01:31:15;;;;;;;0.75;0.75;;;13.90;99.90;;;;;;5107808;28;20186;-75
2021/09/07 01:33:41;;;;;;;0.63;0.63;;;13.90;99.90;;;;;;5108264;28;20160;-75
2021/09/07 01:36:08;;;;;;;3.97;1.02;;;13.90;99.90;;;;;;5089913;28;20167;-75
2021/09/07 01:38:34;;;;;;;3.45;1.23;;;13.80;99.90;;;;;;5108119;28;20232;-74
2021/09/07 01:41:01;;;;;;;2.10;1.95;;;13.70;99.90;;;;;;5089297;28;20203;-74
2021/09/07 01:43:28;;;;;;;1.85;0.82;;;13.60;99.90;;;;;;5090118;28;20202;-75
2021/09/07 01:45:55;;;;;;;0.32;0.32;;;13.60;99.90;;;;;;5089625;28;20175;-74
2021/09/07 01:48:24;;;;;;;5.18;1.17;;;13.50;99.90;;;;;;5107608;28;20184;-74
2021/09/07 01:50:51;;;;;;;1.20;0.88;;;13.50;99.90;;;;;;5089267;28;20278;-75
2021/09/07 01:53:17;;;;;;;0.70;0.70;;;13.40;99.90;;;;;;5095052;28;20311;-75
2021/09/07 01:55:44;;;;;;;0.47;0.47;;;13.40;99.90;;;;;;5087457;28;20232;-75
2021/09/07 01:58:10;;;;;;;0.95;0.95;;;13.40;99.90;;;;;;5081373;28;20171;-74
2021/09/07 02:00:36;;;;;;;0.98;0.90;;;13.50;99.90;;;;;;5110007;28;20198;-74
2021/09/07 02:03:03;;;;;;;1.15;1.15;;;13.50;99.90;;;;;;5109796;28;20199;-74
2021/09/07 02:05:28;;;;;;;3.08;1.00;;;13.40;99.90;;;;;;5110721;28;20175;-74
2021/09/07 02:07:54;;;;;;;1.20;0.88;;;13.40;99.90;;;;;;5132012;28;20236;-74
2021/09/07 02:10:20;;;;;;;0.50;0.50;;;13.30;99.90;;;;;;5113856;28;20167;-74
2021/09/07 02:12:47;;;;;;;1.58;0.70;;;13.20;99.90;;;;;;5113944;28;20165;-74
2021/09/07 02:15:14;;;;;;;1.58;1.48;;;13.20;99.90;;;;;;5113822;28;20652;-76
2021/09/07 02:17:41;;;;;;;0.28;0.28;;;13.20;99.90;;;;;;5113736;28;20647;-75
2021/09/07 02:20:07;;;;;;;0.10;0.10;;;13.10;99.90;;;;;;5132148;28;20248;-76
2021/09/07 02:22:33;;;;;;;0.45;0.45;;;13.00;99.90;;;;;;5132059;28;20177;-76
2021/09/07 02:24:59;;;;;;;0.65;0.40;;;13.00;99.90;;;;;;5122675;28;20163;-75
2021/09/07 02:27:25;;;;;;;0.70;0.68;;;12.90;99.90;;;;;;5111141;28;20206;-75
2021/09/07 02:29:51;;;;;;;0.52;0.30;;;12.80;99.90;;;;;;5111260;28;20159;-76
2021/09/07 02:32:17;;;;;;;1.42;1.33;;;12.80;99.90;;;;;;5092473;28;20181;-75
2021/09/07 02:34:43;;;;;;;1.35;1.25;;;12.80;99.90;;;;;;5111153;28;20175;-76
2021/09/07 02:37:10;;;;;;;0.63;0.52;;;12.80;99.90;;;;;;5092947;28;20167;-75
2021/09/07 02:39:37;;;;;;;1.00;1.00;;;12.80;99.90;;;;;;5092822;28;20171;-75
2021/09/07 02:42:04;;;;;;;3.50;0.77;;;12.50;99.90;;;;;;5093213;28;20175;-75
2021/09/07 02:44:31;;;;;;;0.38;0.38;;;12.60;99.90;;;;;;5110775;28;20195;-77
2021/09/07 02:46:58;;;;;;;0.50;0.50;;;12.50;99.90;;;;;;5110922;28;20187;-76
2021/09/07 02:49:24;;;;;;;0.38;0.35;;;12.50;99.90;;;;;;5092517;28;20262;-75
2021/09/07 02:51:50;;;;;;;1.00;0.88;;;12.70;99.90;;;;;;5092307;28;20175;-75
2021/09/07 02:54:16;;;;;;;0.52;0.30;;;12.60;99.90;;;;;;5091083;28;20228;-75
2021/09/07 02:56:42;;;;;;;0.47;0.47;;;12.60;99.90;;;;;;5090427;28;20208;-75
2021/09/07 02:59:09;;;;;;;1.00;1.00;;;12.60;99.90;;;;;;5118552;28;20170;-74
2021/09/07 03:01:36;;;;;;;1.10;0.77;;;12.70;99.90;;;;;;5112757;28;20195;-76
2021/09/07 03:04:02;;;;;;;0.30;0.30;;;12.70;99.90;;;;;;5131125;28;20186;-75
2021/09/07 03:06:28;;;;;;;1.08;0.85;;;12.60;99.90;;;;;;5112868;28;20227;-74
2021/09/07 03:08:54;;;;;;;1.95;1.85;;;12.60;99.90;;;;;;5130829;28;20186;-75
2021/09/07 03:11:20;;;;;;;0.70;0.70;;;12.60;99.90;;;;;;5112822;28;20174;-75
2021/09/07 03:13:46;;;;;;;0.57;0.57;;;12.60;99.90;;;;;;5113420;28;20194;-76
2021/09/07 03:16:12;;;;;;;0.40;0.40;;;12.60;99.90;;;;;;5133141;28;20158;-77
2021/09/07 03:18:38;;;;;;;0.70;0.68;;;12.40;99.90;;;;;;5132799;28;20476;-76
2021/09/07 03:21:04;;;;;;;0.88;0.88;;;12.50;99.90;;;;;;5133821;28;20155;-76
2021/09/07 03:23:30;;;;;;;0.65;0.65;;;12.40;99.90;;;;;;5115377;28;20220;-76
2021/09/07 03:25:56;;;;;;;0.63;0.63;;;12.40;99.90;;;;;;5115317;28;20171;-76
2021/09/07 03:28:22;;;;;;;3.92;2.00;;;12.40;99.90;;;;;;5111628;28;20210;-76
2021/09/07 03:30:47;;;;;;;0.43;0.43;;;12.30;99.90;;;;;;5111958;28;20300;-76
2021/09/07 03:33:13;;;;;;;2.75;2.25;;;12.40;99.90;;;;;;5111853;28;20250;-76
2021/09/07 03:35:39;;;;;;;0.25;0.25;;;12.40;99.90;;;;;;5111623;28;20160;-76
2021/09/07 03:38:05;;;;;;;0.30;0.22;;;12.40;99.90;;;;;;5111426;28;20156;-76
2021/09/07 03:40:31;;;;;;;1.17;1.08;;;12.40;99.90;;;;;;5091454;28;20175;-76
2021/09/07 03:42:57;;;;;;;0.73;0.73;;;12.30;99.90;;;;;;5091351;28;20268;-76
2021/09/07 03:45:23;;;;;;;0.95;0.95;;;12.30;99.90;;;;;;5109622;28;20178;-76
2021/09/07 03:47:49;;;;;;;1.27;1.10;;;12.40;99.90;;;;;;5109693;28;20239;-75
2021/09/07 03:50:16;;;;;;;1.90;1.02;;;12.40;99.90;;;;;;5091377;28;20196;-76
2021/09/07 03:52:42;;;;;;;1.58;1.42;;;12.50;99.90;;;;;;5109223;28;20648;-76
2021/09/07 03:55:09;;;;;;;0.10;0.10;;;12.50;99.90;;;;;;5091096;28;20183;-76
2021/09/07 03:57:35;;;;;;;1.25;1.00;;;12.50;99.90;;;;;;5091083;28;20159;-76
2021/09/07 04:00:01;;;;;;;0.40;0.40;;;12.50;99.90;;;;;;5109428;28;20190;-75
2021/09/07 04:02:27;;;;;;;0.57;0.57;;;12.50;99.90;;;;;;5090941;28;20168;-76
2021/09/07 04:04:53;;;;;;;0.60;0.45;;;12.40;99.90;;;;;;5091229;28;20258;-76
2021/09/07 04:07:19;;;;;;;0.65;0.65;;;12.40;99.90;;;;;;5109332;28;20187;-76
2021/09/07 04:09:45;;;;;;;0.68;0.68;;;12.40;99.90;;;;;;5109105;28;20200;-76
2021/09/07 04:12:11;;;;;;;1.23;1.13;;;12.40;99.90;;;;;;5109185;28;20144;-76
2021/09/07 04:14:37;;;;;;;1.65;0.70;;;12.40;99.90;;;;;;5109052;28;20187;-77
2021/09/07 04:17:04;;;;;;;0.68;0.68;;;12.30;99.90;;;;;;5109054;28;20161;-76
2021/09/07 04:19:31;;;;;;;0.52;0.52;;;12.30;99.90;;;;;;5109045;28;20155;-77
2021/09/07 04:21:56;;;;;;;0.98;0.40;;;12.20;99.90;;;;;;5090507;28;20169;-77
2021/09/07 04:24:22;;;;;;;4.75;2.00;;;12.20;99.90;;;;;;5104958;28;20680;-77
2021/09/07 04:26:48;;;;;;;1.13;0.95;;;12.30;99.90;;;;;;5087126;28;20253;-76
2021/09/07 04:29:15;;;;;;;1.02;1.02;;;12.30;99.90;;;;;;5070227;28;20165;-75
2021/09/07 04:31:42;;;;;;;3.22;2.05;;;12.30;99.90;;;;;;5070390;28;20260;-75
2021/09/07 04:34:08;;;;;;;0.52;0.47;;;12.30;99.90;;;;;;5087936;28;20187;-75
2021/09/07 04:36:34;;;;;;;1.35;0.88;;;12.00;99.90;;;;;;5070319;28;20504;-77
2021/09/07 04:39:00;;;;;;;0.40;0.40;;;12.00;99.90;;;;;;5088414;28;20161;-76
2021/09/07 04:41:28;;;;;;;1.25;0.88;;;12.00;99.90;;;;;;5088224;28;20174;-76
2021/09/07 04:43:53;;;;;;;0.52;0.52;;;12.00;99.90;;;;;;5070038;28;20291;-76
2021/09/07 04:46:19;;;;;;;0.40;0.40;;;12.10;99.90;;;;;;5088304;28;20168;-76
2021/09/07 04:48:49;;;;;;;0.70;0.70;;;12.20;99.90;;;;;;5087997;28;20244;-75
2021/09/07 04:51:15;;;;;;;0.50;0.50;;;12.10;99.90;;;;;;5088180;28;20167;-76
2021/09/07 04:53:41;;;;;;;1.77;1.65;;;12.20;99.90;;;;;;5095605;28;20215;-76
2021/09/07 04:56:07;;;;;;;0.45;0.45;;;12.30;99.90;;;;;;5128797;28;20158;-76
2021/09/07 04:58:33;;;;;;;0.22;0.22;;;12.30;99.90;;;;;;5128675;28;20189;-77
2021/09/07 05:00:59;;;;;;;1.92;1.15;;;12.30;99.90;;;;;;5128736;28;20154;-76
2021/09/07 05:03:25;;;;;;;0.28;0.28;;;12.30;99.90;;;;;;5128711;28;20278;-76
2021/09/07 05:05:51;;;;;;;0.57;0.57;;;12.40;99.90;;;;;;5110340;28;20174;-76
2021/09/07 05:08:17;;;;;;;1.13;0.88;;;12.60;99.90;;;;;;5128541;28;20197;-75
2021/09/07 05:10:43;;;;;;;0.75;0.75;;;12.90;99.90;;;;;;5128544;28;20537;-75
2021/09/07 05:13:09;;;;;;;1.15;0.57;;;13.50;99.90;;;;;;5110066;28;20191;-75
2021/09/07 05:15:35;;;;;;;1.25;1.15;;;13.70;99.90;;;;;;5128578;28;20158;-75
2021/09/07 05:18:00;;;;;;;1.40;0.90;;;13.90;99.90;;;;;;5128710;28;20230;-77
2021/09/07 05:20:26;;;;;;;2.55;1.77;;;14.00;99.90;;;;;;5128637;28;20163;-75
2021/09/07 05:22:52;;;;;;;1.88;1.77;;;14.40;99.90;;;;;;5128721;28;20480;-74
2021/09/07 05:25:18;;;;;;;1.00;0.88;;;14.80;99.90;;;;;;5116782;28;20186;-75
2021/09/07 05:27:44;;;;;;;1.58;1.48;;;15.00;99.90;;;;;;5108002;28;20202;-77
2021/09/07 05:30:11;;;;;;;1.90;1.80;;;15.00;99.90;;;;;;5089898;28;20220;-75
2021/09/07 05:32:38;;;;;;;1.00;1.00;;;15.10;99.90;;;;;;5108168;28;20160;-76
2021/09/07 05:35:05;;;;;;;1.17;1.08;;;15.60;99.90;;;;;;5108180;28;20166;-76
2021/09/07 05:37:38;;;;;;;1.48;1.38;;;16.00;99.90;;;;;;5108237;28;20160;-76
2021/09/07 05:40:06;;;;;;;0.40;0.40;;;16.10;99.90;;;;;;5089293;28;20270;-76
2021/09/07 05:42:32;;;;;;;1.08;1.08;;;16.10;99.90;;;;;;5112092;28;20183;-75
2021/09/07 05:44:58;;;;;;;1.63;1.52;;;16.30;99.90;;;;;;5111923;28;20166;-75
2021/09/07 05:47:24;;;;;;;1.55;1.45;;;16.30;99.90;;;;;;5111865;28;20200;-76
2021/09/07 05:49:50;;;;;;;2.85;2.00;;;16.80;99.90;;;;;;5094222;28;20174;-75
2021/09/07 05:52:16;;;;;;;2.05;1.23;;;17.00;99.90;;;;;;5094890;28;20163;-76
2021/09/07 05:54:42;;;;;;;1.83;1.35;;;17.30;99.90;;;;;;5090581;28;20692;-76
2021/09/07 05:57:08;;;;;;;0.60;0.60;;;17.20;99.90;;;;;;5095506;28;20205;-74
2021/09/07 05:59:34;;;;;;;1.40;1.33;;;17.40;99.90;;;;;;5112793;28;20175;-75
2021/09/07 06:02:00;;;;;;;1.50;1.40;;;17.10;99.90;;;;;;5087671;28;20250;-74
2021/09/07 06:04:25;;;;;;;36.53;2.53;;;16.70;99.90;;;;;;5111260;28;20198;-75
2021/09/07 06:06:51;;;;;;;2.60;1.67;;;16.60;99.90;;;;;;5093053;28;20191;-75
2021/09/07 06:09:18;;;;;;;3.95;1.55;;;16.90;99.90;;;;;;5111518;28;20219;-75
2021/09/07 06:11:43;;;;;;;5.05;1.23;;;17.10;99.90;;;;;;5111596;28;20160;-75
2021/09/07 06:14:10;;;;;;;4.07;1.45;;;17.80;99.90;;;;;;5092781;28;20267;-77
2021/09/07 06:16:35;;;;;;;1.35;1.33;;;18.40;99.90;;;;;;5092897;28;20170;-76
2021/09/07 06:19:02;;;;;;;3.92;1.67;;;19.00;99.90;;;;;;5093033;28;20164;-75
2021/09/07 06:21:29;;;;;;;4.00;2.08;;;19.00;99.90;;;;;;5093053;28;20167;-75
2021/09/07 06:23:55;;;;;;;3.33;1.67;;;18.60;99.90;;;;;;5111032;28;20278;-76
2021/09/07 06:26:21;;;;;;;0.63;0.63;;;18.50;99.90;;;;;;5090910;28;20160;-76
2021/09/07 06:28:47;;;;;;;8.48;1.98;;;18.50;99.90;;;;;;5090448;28;20192;-75
2021/09/07 06:31:13;;;;;;;6.93;1.70;;;18.30;99.90;;;;;;5090697;28;20148;-75
2021/09/07 06:33:39;;;;;;;0.50;0.50;;;18.30;99.90;;;;;;5072513;28;20200;-74
2021/09/07 06:36:05;;;;;;;2.03;1.65;;;18.10;99.90;;;;;;5090598;28;20182;-75
2021/09/07 06:38:30;;;;;;;7.20;1.52;;;18.20;99.90;;;;;;5090651;28;20295;-74
2021/09/07 06:40:56;;;;;;;1.60;1.23;;;19.20;99.90;;;;;;5090536;28;20203;-75
2021/09/07 06:43:22;;;;;;;0.75;0.75;;;20.40;99.90;;;;;;5090561;28;20171;-76
2021/09/07 06:45:48;;;;;;;4.78;1.63;;;20.90;99.90;;;;;;5072252;28;20174;-75
2021/09/07 06:48:14;;;;;;;0.82;0.82;;;20.80;99.90;;;;;;5072273;28;20233;-75
2021/09/07 06:50:41;;;;;;;9.82;2.35;;;21.40;99.90;;;;;;5072179;28;20192;-74
2021/09/07 06:53:07;;;;;;;1.67;1.25;;;22.40;99.90;;;;;;5083865;28;20315;-75
2021/09/07 06:55:33;;;;;;;3.70;1.73;;;22.20;99.90;;;;;;5068689;28;20176;-74
2021/09/07 06:57:59;;;;;;;3.97;2.35;;;23.20;99.90;;;;;;5079122;28;20178;-75
2021/09/07 07:00:25;;;;;;;1.35;1.17;;;23.00;99.90;;;;;;5110365;28;20328;-74
2021/09/07 07:02:51;;;;;;;3.10;1.55;;;22.10;99.90;;;;;;5069688;28;20211;-75
2021/09/07 07:05:17;;;;;;;1.40;1.30;;;21.60;99.90;;;;;;5079145;28;20173;-75
2021/09/07 07:07:43;;;;;;;1.75;1.13;;;21.30;99.90;;;;;;5090077;28;20199;-75
2021/09/07 07:10:09;;;;;;;1.48;1.38;;;22.30;99.90;;;;;;5087516;28;20692;-75
2021/09/07 07:12:35;;;;;;;3.10;1.17;;;23.60;99.90;;;;;;5083891;28;20171;-75
2021/09/07 07:15:01;;;;;;;2.67;1.60;;;24.60;99.90;;;;;;5089855;28;20156;-75
2021/09/07 07:17:27;;;;;;;3.33;1.40;;;24.30;99.90;;;;;;5089879;28;20160;-74
2021/09/07 07:19:53;;;;;;;1.90;1.20;;;23.50;99.90;;;;;;5089785;28;20166;-74
2021/09/07 07:22:20;;;;;;;1.15;1.02;;;23.30;99.90;;;;;;5089737;28;20272;-74
2021/09/07 07:24:46;;;;;;;1.70;1.33;;;23.30;99.90;;;;;;5089654;28;20167;-73
2021/09/07 07:27:12;;;;;;;7.93;1.75;;;23.50;99.90;;;;;;5089147;28;20427;-73
2021/09/07 07:29:38;;;;;;;0.60;0.60;;;23.80;99.90;;;;;;5089477;28;20155;-74
2021/09/07 07:32:04;;;;;;;1.05;0.90;;;23.80;99.90;;;;;;5089288;28;20293;-73
2021/09/07 07:34:30;;;;;;;1.65;1.20;;;23.00;99.90;;;;;;5089367;28;20166;-72
2021/09/07 07:36:57;;;;;;;1.25;1.15;;;24.40;99.90;;;;;;5071356;28;20163;-73
2021/09/07 07:39:24;;;;;;;5.15;2.05;;;24.40;99.90;;;;;;5089259;28;20168;-75
2021/09/07 07:41:50;;;;;;;2.05;1.52;;;22.40;99.90;;;;;;5087786;28;20218;-75
2021/09/07 07:44:16;;;;;;;1.05;1.05;;;22.70;99.90;;;;;;5088382;28;20168;-76
2021/09/07 07:46:42;;;;;;;1.90;1.77;;;23.30;99.90;;;;;;5089086;28;20156;-75
2021/09/07 07:49:08;;;;;;;3.03;0.98;;;22.70;99.90;;;;;;5089045;28;20175;-74
2021/09/07 07:51:34;;;;;;;1.60;0.98;;;22.40;99.90;;;;;;5070561;28;20648;-75
2021/09/07 07:54:00;;;;;;;4.78;1.60;;;22.50;99.90;;;;;;5093535;28;20214;-74
2021/09/07 07:56:26;;;;;;;2.22;1.48;;;22.50;99.90;;;;;;5109233;28;20174;-74
2021/09/07 07:58:52;;;;;;;1.27;0.63;;;22.70;99.90;;;;;;5109170;28;20173;-75
2021/09/07 08:01:18;;;;;;;1.67;1.52;;;24.00;99.90;;;;;;5107883;28;20194;-74
2021/09/07 08:03:46;;;;;;;1.33;0.98;;;24.90;99.90;;;;;;5108488;28;20182;-74
2021/09/07 08:06:13;;;;;;;1.58;1.27;;;25.60;99.90;;;;;;5109078;28;20238;-74
2021/09/07 08:08:39;;;;;;;1.30;1.20;;;25.30;99.90;;;;;;5107905;28;20277;-75
2021/09/07 08:11:05;;;;;;;1.50;1.40;;;25.40;99.90;;;;;;5098804;28;20194;-75
2021/09/07 08:13:31;;;;;;;1.88;1.63;;;25.30;99.90;;;;;;5114990;28;20217;-75
2021/09/07 08:15:56;;;;;;;3.50;1.85;;;24.90;99.90;;;;;;5102622;28;20170;-75
2021/09/07 08:18:22;;;;;;;1.23;1.13;;;24.80;99.90;;;;;;5116859;28;20191;-76
2021/09/07 08:20:49;;;;;;;5.50;3.72;;;24.00;99.90;;;;;;5115809;28;20181;-74
2021/09/07 08:23:15;;;;;;;2.47;2.17;;;24.40;99.90;;;;;;5111336;28;20202;-73
2021/09/07 08:25:42;;;;;;;1.83;1.73;;;24.40;99.90;;;;;;5107931;28;20178;-73
2021/09/07 08:28:08;;;;;;;0.70;0.70;;;24.20;99.90;;;;;;5107824;28;20186;-73
2021/09/07 08:30:34;;;;;;;1.20;1.08;;;24.50;99.90;;;;;;5089050;28;20193;-74
2021/09/07 08:33:00;;;;;;;2.95;1.33;;;24.40;99.90;;;;;;5107303;28;20203;-74
2021/09/07 08:35:26;;;;;;;3.63;1.83;;;24.20;99.90;;;;;;5107743;28;20178;-73
2021/09/07 08:37:52;;;;;;;4.35;1.17;;;23.80;99.90;;;;;;5107748;28;20163;-74
2021/09/07 08:40:18;;;;;;;1.52;1.42;;;23.90;99.90;;;;;;5087996;28;20229;-77
2021/09/07 08:42:44;;;;;;;18.10;1.15;;;24.20;99.90;;;;;;5096722;28;20236;-75
2021/09/07 08:45:13;;;;;;;1.08;0.63;;;25.70;99.90;;;;;;5097140;28;20178;-76
2021/09/07 08:47:39;;;;;;;1.35;1.25;;;26.80;99.90;;;;;;5089951;28;20186;-74
2021/09/07 08:50:06;;;;;;;4.57;2.38;;;26.90;99.90;;;;;;5089151;28;20170;-77
2021/09/07 08:52:32;;;;;;;1.52;1.42;;;27.00;99.90;;;;;;5106516;28;20270;-74
2021/09/07 08:54:58;;;;;;;6.82;0.80;;;26.00;99.90;;;;;;5107127;28;20193;-75
2021/09/07 08:57:26;;;;;;;2.65;2.28;;;25.90;99.90;;;;;;5097210;28;20199;-76
2021/09/07 09:00:00;;;;;;;0.77;0.77;;;24.80;99.90;;;;;;5100300;28;20625;-74
2021/09/07 09:02:27;;;;;;;4.97;1.60;;;24.50;99.90;;;;;;5101492;28;20240;-75
2021/09/07 09:04:58;;;;;;;2.28;1.75;;;24.70;99.90;;;;;;5101226;28;20581;-76
2021/09/07 09:07:29;;;;;;;0.77;0.70;;;24.40;99.90;;;;;;5104495;28;20205;-74
2021/09/07 09:09:57;;;;;;;1.05;1.05;;;25.30;99.90;;;;;;5091033;28;20642;-74
2021/09/07 09:12:35;;;;;;;1.00;0.85;;;26.50;99.90;;;;;;5103018;28;20174;-74
2021/09/07 09:15:12;;;;;;;2.05;1.00;;;26.90;99.90;;;;;;5087640;28;20162;-74
2021/09/07 09:17:38;;;;;;;2.28;0.77;;;26.50;99.90;;;;;;5106573;28;20162;-74
2021/09/07 09:20:18;;;;;;;1.25;0.98;;;26.70;99.90;;;;;;5099736;28;20205;-75
2021/09/07 09:22:52;;;;;;;1.35;1.08;;;25.40;99.90;;;;;;5106430;28;20166;-73
2021/09/07 09:25:21;;;;;;;0.90;0.75;;;24.80;99.90;;;;;;5085952;28;20242;-74
2021/09/07 09:27:54;;;;;;;1.30;0.63;;;24.30;99.90;;;;;;5107213;28;20198;-73
2021/09/07 09:30:34;;;;;;;0.80;0.63;;;24.30;99.90;;;;;;5106063;28;20224;-76
2021/09/07 09:33:00;;;;;;;0.90;0.47;;;23.90;99.90;;;;;;5101958;28;20158;-74
2021/09/07 09:35:27;;;;;;;1.65;0.68;;;24.30;99.90;;;;;;5106179;28;20162;-76
2021/09/07 09:37:55;;;;;;;1.55;1.45;;;24.20;99.90;;;;;;5087925;28;20174;-74
2021/09/07 09:40:21;;;;;;;1.23;1.13;;;23.80;99.90;;;;;;5106629;28;20171;-73
2021/09/07 09:42:50;;;;;;;0.85;0.80;;;23.60;99.90;;;;;;5105126;28;20196;-74
2021/09/07 09:45:17;;;;;;;4.30;1.30;;;24.30;99.90;;;;;;5093869;28;20181;-74
2021/09/07 09:47:51;;;;;;;1.45;0.65;;;25.10;99.90;;;;;;5112695;28;20217;-74
2021/09/07 09:50:19;;;;;;;0.47;0.45;;;25.50;99.90;;;;;;5109468;28;20214;-74
2021/09/07 09:52:47;;;;;;;0.98;0.80;;;26.80;99.90;;;;;;5083929;28;20254;-74
2021/09/07 09:55:15;;;;;;;0.73;0.70;;;27.40;99.90;;;;;;5094145;28;20171;-75
2021/09/07 09:57:41;;;;;;;1.23;1.13;;;27.50;99.90;;;;;;5067709;28;20172;-75
2021/09/07 10:00:13;;;;;;;0.50;0.45;;;28.30;99.90;;;;;;5068029;28;20235;-75
2021/09/07 10:02:40;;;;;;;0.45;0.43;;;27.80;99.90;;;;;;5085793;28;20282;-75
2021/09/07 10:05:08;;;;;;;1.05;0.95;;;27.50;99.90;;;;;;5068069;28;20164;-75
2021/09/07 10:07:34;;;;;;;2.33;1.92;;;28.50;99.90;;;;;;5067166;28;20205;-74
2021/09/07 10:10:01;;;;;;;1.27;1.17;;;28.30;99.90;;;;;;5086055;28;20175;-74
2021/09/07 10:12:38;;;;;;;3.47;2.00;;;29.00;99.90;;;;;;5085822;28;20195;-75
2021/09/07 10:17:54;;;;;;;1.08;0.98;;;28.20;99.70;;;;;;5084398;28;20223;-75
2021/09/07 10:21:03;;;;;;;1.65;1.17;;;26.80;99.90;;;;;;5089665;28;20171;-74
2021/09/07 10:24:03;;;;;;;1.20;1.13;;;26.30;99.90;;;;;;5083609;28;20177;-74
2021/09/07 10:26:41;;;;;;;2.22;1.48;;;27.60;99.90;;;;;;5021304;28;20185;-74
2021/09/07 10:29:08;;;;;;;0.82;0.80;;;26.70;99.90;;;;;;5026687;28;20231;-74
2021/09/07 10:32:06;;;;;;;1.98;0.73;;;26.60;99.60;;;;;;5026968;28;20193;-74
2021/09/07 10:35:24;;;;;;;0.95;0.77;;;26.80;99.70;;;;;;5002032;28;20197;-74
2021/09/07 10:38:34;;;;;;;0.60;0.60;;;26.70;98.00;;;;;;4937039;29;20277;-74
2021/09/07 10:41:00;;;;;;;3.10;1.33;;;27.20;98.70;;;;;;4914258;29;20216;-77
2021/09/07 10:43:47;;;;;;;1.42;1.30;;;26.70;98.40;;;;;;4928862;29;20277;-74
2021/09/07 10:46:12;;;;;;;0.80;0.80;;;26.20;99.30;;;;;;4927701;29;20379;-73
2021/09/07 10:48:38;;;;;;;0.95;0.90;;;25.70;99.90;;;;;;4935142;29;20225;-74
2021/09/07 10:51:04;;;;;;;0.28;0.28;;;26.20;98.70;;;;;;4930321;29;20195;-74
2021/09/07 10:53:31;;;;;;;1.00;0.43;;;26.90;97.10;;;;;;4908424;29;20224;-74
2021/09/07 10:56:24;;;;;;;0.88;0.88;;;27.50;97.30;;;;;;4914641;29;20231;-74
2021/09/07 10:58:50;;;;;;;2.00;0.75;;;27.30;96.50;;;;;;4913733;29;20261;-74
2021/09/07 11:01:27;;;;;;;1.95;1.80;;;26.80;97.90;;;;;;4916564;29;20210;-73
2021/09/07 11:04:33;;;;;;;1.08;1.02;;;27.20;96.10;;;;;;4922631;29;20208;-74
2021/09/07 11:07:01;;;;;;;2.85;1.17;;;25.90;99.10;;;;;;4939722;29;22043;-74
2021/09/07 11:09:52;;;;;;;1.23;0.73;;;26.40;98.20;;;;;;4947307;29;20183;-74
2021/09/07 11:12:26;;;;;;;4.80;1.58;;;26.70;98.10;;;;;;4931819;28;20201;-74
2021/09/07 11:15:11;;;;;;;0.47;0.47;;;27.00;97.30;;;;;;4977087;28;20170;-74
2021/09/07 11:17:54;;;;;;;1.02;0.95;;;26.10;97.50;;;;;;5058833;28;20210;-73
2021/09/07 11:20:22;;;;;;;1.40;0.88;;;26.50;96.70;;;;;;5104317;28;20171;-74
2021/09/07 11:22:49;;;;;;;0.95;0.70;;;27.10;94.00;;;;;;5096086;28;20198;-73
2021/09/07 11:25:19;;;;;;;1.25;1.05;;;26.10;95.30;;;;;;5107264;28;20159;-75
2021/09/07 11:28:00;;;;;;;0.63;0.63;;;26.00;96.10;;;;;;5073004;28;20236;-73
2021/09/07 11:30:30;;;;;;;0.70;0.70;;;25.60;97.90;;;;;;5100254;28;20666;-74
2021/09/07 11:33:14;;;;;;;2.72;1.73;;;24.80;96.90;;;;;;5093955;28;20191;-73
2021/09/07 11:35:49;;;;;;;0.77;0.77;;;24.90;97.60;;;;;;5093677;28;20155;-73
2021/09/07 11:38:28;;;;;;;1.02;1.00;;;24.70;98.00;;;;;;5090381;28;20266;-73
2021/09/07 11:41:09;;;;;;;0.40;0.30;;;25.20;97.20;;;;;;5092089;28;20169;-73
2021/09/07 11:43:39;;;;;;;0.35;0.35;;;25.50;97.40;;;;;;5086521;28;20233;-73
2021/09/07 11:46:09;;;;;;;1.00;0.82;;;25.50;99.10;;;;;;5069416;28;20178;-73
2021/09/07 11:48:37;;;;;;;0.85;0.85;;;25.70;97.90;;;;;;5071798;28;20187;-73
2021/09/07 11:51:06;;;;;;;0.73;0.70;;;25.60;97.40;;;;;;5087694;28;20203;-73
2021/09/07 11:53:31;;;;;;;1.70;1.35;;;25.60;97.30;;;;;;5096386;28;20264;-73
2021/09/07 11:55:59;;;;;;;1.67;1.33;;;25.20;98.70;;;;;;5108219;28;20218;-74
2021/09/07 11:58:31;;;;;;;4.60;2.55;;;25.40;98.00;;;;;;5092114;28;20210;-74
2021/09/07 12:01:11;;;;;;;1.20;0.75;;;25.90;96.70;;;;;;5118821;28;20170;-75
2021/09/07 12:03:43;;;;;;;0.95;0.88;;;26.70;96.90;;;;;;5097202;28;20205;-75
2021/09/07 12:06:14;;;;;;;1.58;1.00;;;27.00;95.60;;;;;;5129197;28;20166;-76
2021/09/07 12:08:43;;;;;;;1.55;1.13;;;27.60;95.50;;;;;;5089339;28;20744;-74
2021/09/07 12:11:26;;;;;;;1.30;0.93;;;26.40;96.20;;;;;;5089774;28;20166;-73
2021/09/07 12:14:10;;;;;;;1.23;1.13;;;25.30;97.00;;;;;;5107284;28;20182;-75
2021/09/07 12:17:02;;;;;;;0.30;0.30;;;24.20;99.00;;;;;;5113058;28;20513;-73
2021/09/07 12:19:34;;;;;;;2.88;0.50;;;23.90;99.60;;;;;;5097432;28;20228;-73
2021/09/07 12:22:17;;;;;;;1.10;0.70;;;24.00;99.90;;;;;;5124943;28;20240;-73
2021/09/07 12:25:06;;;;;;;0.45;0.45;;;24.40;99.90;;;;;;5096785;28;20209;-74
2021/09/07 12:27:53;;;;;;;2.67;1.25;;;24.70;99.90;;;;;;5110250;28;20213;-74
2021/09/07 12:30:28;;;;;;;3.35;1.15;;;24.60;99.20;;;;;;5125778;28;20174;-73
2021/09/07 12:33:02;;;;;;;2.40;1.35;;;24.20;99.60;;;;;;5124298;28;20199;-74
2021/09/07 12:35:51;;;;;;;2.05;1.02;;;24.30;99.80;;;;;;5104158;28;20191;-75
2021/09/07 12:38:23;;;;;;;2.25;1.40;;;24.30;99.30;;;;;;5079860;28;20207;-75
2021/09/07 12:40:52;;;;;;;0.50;0.50;;;24.00;99.80;;;;;;5120461;28;20163;-74
2021/09/07 12:43:27;;;;;;;0.77;0.57;;;24.20;99.90;;;;;;5112242;28;20194;-75
2021/09/07 12:46:00;;;;;;;1.05;0.68;;;24.40;99.70;;;;;;5128965;28;20577;-75
2021/09/07 12:48:26;;;;;;;0.55;0.55;;;24.60;99.90;;;;;;5128883;28;20231;-74
2021/09/07 12:50:54;;;;;;;0.82;0.82;;;24.40;99.90;;;;;;5109243;28;20174;-74
2021/09/07 12:53:21;;;;;;;1.30;1.05;;;24.50;99.90;;;;;;5116043;28;20214;-75
2021/09/07 12:55:47;;;;;;;3.15;1.05;;;24.20;99.70;;;;;;5092925;28;20196;-72
2021/09/07 12:58:13;;;;;;;3.10;1.30;;;24.00;99.90;;;;;;5105140;28;20209;-75